Time;durP1;ratioP1;P1;durP2;ratioP2;P2;SDS_P1;SDS_P2;PMS_P1;PMS_P2;Temp;Humidity;BMP_temperature;BMP_pressure;BME280_temperature;BME280_humidity;BME280_pressure;Samples;Min_cycle;Max_cycle;Signal;HPM_P1;HPM_P2
2022/07/07 00:01:21;;;;;;;;;;;26.20;94.30;;;;;;5125147;28;19904;-53
2022/07/07 00:03:50;;;;;;;;;;;26.20;94.30;;;;;;5125482;28;19954;-51
2022/07/07 00:06:17;;;;;;;;;;;26.20;94.30;;;;;;5125327;28;19911;-51
2022/07/07 00:08:43;;;;;;;;;;;26.20;94.20;;;;;;5124104;28;19912;-50
2022/07/07 00:11:09;;;;;;;;;;;26.20;94.20;;;;;;5125392;28;19926;-49
2022/07/07 00:13:36;;;;;;;;;;;26.20;94.20;;;;;;5124941;28;19919;-50
2022/07/07 00:16:10;;;;;;;;;;;26.20;94.20;;;;;;5124574;28;19908;-53
2022/07/07 00:18:37;;;;;;;;;;;26.20;94.20;;;;;;5125027;28;19912;-52
2022/07/07 00:21:03;;;;;;;;;;;26.10;94.10;;;;;;5124721;28;19911;-48
2022/07/07 00:23:30;;;;;;;;;;;26.10;94.20;;;;;;5123854;28;19904;-49
2022/07/07 00:25:56;;;;;;;;;;;26.10;94.20;;;;;;5115842;28;19923;-53
2022/07/07 00:28:22;;;;;;;;;;;26.00;94.40;;;;;;5116370;28;19949;-55
2022/07/07 00:30:49;;;;;;;;;;;26.00;94.50;;;;;;5124206;28;19946;-48
2022/07/07 00:36:07;;;;;;;;;;;25.80;94.80;;;;;;5100360;28;19934;-54
2022/07/07 00:38:34;;;;;;;;;;;25.70;95.00;;;;;;5115106;28;19950;-49
2022/07/07 00:41:01;;;;;;;;;;;25.70;95.00;;;;;;5124150;28;19907;-52
2022/07/07 00:43:27;;;;;;;;;;;25.70;95.10;;;;;;5106505;28;19911;-51
2022/07/07 00:46:01;;;;;;;;;;;25.80;95.00;;;;;;5124232;28;19904;-51
2022/07/07 00:48:27;;;;;;;;;;;25.90;94.90;;;;;;5123843;28;19981;-52
2022/07/07 00:50:54;;;;;;;;;;;25.90;94.80;;;;;;5122868;28;19912;-53
2022/07/07 00:53:23;;;;;;;;;;;25.90;94.70;;;;;;5124696;28;19904;-52
2022/07/07 00:55:49;;;;;;;;;;;25.90;94.60;;;;;;5104976;28;19907;-55
2022/07/07 00:58:18;;;;;;;;;;;25.90;94.60;;;;;;5124073;28;19962;-52
2022/07/07 01:00:45;;;;;;;;;;;26.00;94.50;;;;;;5124946;28;19939;-52
2022/07/07 01:03:11;;;;;;;;;;;26.00;94.50;;;;;;5106626;28;19975;-49
2022/07/07 01:05:38;;;;;;;;;;;26.00;94.50;;;;;;5124442;28;19912;-50
2022/07/07 01:08:05;;;;;;;;;;;26.00;94.40;;;;;;5124380;28;19904;-54
2022/07/07 01:10:31;;;;;;;;;;;26.00;94.40;;;;;;5125194;28;19957;-55
2022/07/07 01:13:10;;;;;;;;;;;26.00;94.40;;;;;;5123909;28;19926;-53
2022/07/07 01:15:36;;;;;;;;;;;26.00;94.40;;;;;;5124764;28;19918;-54
2022/07/07 01:18:03;;;;;;;;;;;26.00;94.50;;;;;;5124257;28;20186;-51
2022/07/07 01:20:29;;;;;;;;;;;25.90;94.40;;;;;;5128529;28;19912;-52
2022/07/07 01:22:55;;;;;;;;;;;26.00;94.40;;;;;;5128369;28;19911;-57
2022/07/07 01:25:22;;;;;;;;;;;25.90;94.30;;;;;;5127892;28;19952;-49
2022/07/07 01:27:50;;;;;;;;;;;25.90;94.30;;;;;;5128206;28;20096;-49
2022/07/07 01:30:17;;;;;;;;;;;26.00;94.30;;;;;;5128597;28;19912;-53
2022/07/07 01:32:43;;;;;;;;;;;26.00;94.30;;;;;;5127831;28;19904;-51
2022/07/07 01:35:10;;;;;;;;;;;25.90;94.40;;;;;;5109618;28;20190;-54
2022/07/07 01:37:37;;;;;;;;;;;25.90;94.30;;;;;;5127722;28;19930;-52
2022/07/07 01:40:04;;;;;;;;;;;25.90;94.40;;;;;;5128219;28;19912;-52
2022/07/07 01:42:30;;;;;;;;;;;25.90;94.30;;;;;;5128061;28;19919;-52
2022/07/07 01:44:56;;;;;;;;;;;25.90;94.30;;;;;;5127480;28;19919;-49
2022/07/07 01:47:23;;;;;;;;;;;25.90;94.30;;;;;;5127641;28;19910;-48
2022/07/07 01:49:50;;;;;;;;;;;25.90;94.30;;;;;;5127705;28;19912;-50
2022/07/07 01:52:16;;;;;;;;;;;25.90;94.30;;;;;;5127680;28;20049;-49
2022/07/07 01:54:43;;;;;;;;;;;25.90;94.40;;;;;;5127707;28;19911;-50
2022/07/07 01:57:09;;;;;;;;;;;25.90;94.40;;;;;;5127398;28;19952;-48
2022/07/07 01:59:36;;;;;;;;;;;25.90;94.40;;;;;;5127715;28;20115;-46
2022/07/07 02:02:02;;;;;;;;;;;25.90;94.40;;;;;;5127504;28;19911;-49
2022/07/07 02:04:29;;;;;;;;;;;25.90;94.40;;;;;;5127698;28;19983;-52
2022/07/07 02:06:55;;;;;;;;;;;25.90;94.40;;;;;;5127196;28;19903;-53
2022/07/07 02:09:21;;;;;;;;;;;25.90;94.40;;;;;;5127280;28;19912;-50
2022/07/07 02:11:47;;;;;;;;;;;25.80;94.40;;;;;;5126991;28;19904;-54
2022/07/07 02:14:13;;;;;;;;;;;25.80;94.50;;;;;;5124723;28;19911;-60
2022/07/07 02:16:39;;;;;;;;;;;25.80;94.50;;;;;;5095647;28;19912;-52
2022/07/07 02:19:06;;;;;;;;;;;25.80;94.50;;;;;;5127165;28;19912;-54
2022/07/07 02:21:33;;;;;;;;;;;25.80;94.50;;;;;;5127122;28;19935;-52
2022/07/07 02:23:59;;;;;;;;;;;25.80;94.50;;;;;;5127944;28;20200;-57
2022/07/07 02:26:25;;;;;;;;;;;25.80;94.50;;;;;;5126755;28;19908;-54
2022/07/07 02:28:52;;;;;;;;;;;25.80;94.50;;;;;;5120426;28;19983;-57
2022/07/07 02:31:18;;;;;;;;;;;25.70;94.50;;;;;;5111150;28;19934;-58
2022/07/07 02:33:45;;;;;;;;;;;25.70;94.50;;;;;;5088062;28;20131;-53
2022/07/07 02:36:12;;;;;;;;;;;25.70;94.50;;;;;;5106392;28;19924;-56
2022/07/07 02:38:39;;;;;;;;;;;25.70;94.50;;;;;;5117870;28;20189;-57
2022/07/07 02:41:05;;;;;;;;;;;25.70;94.40;;;;;;5126437;28;19904;-54
2022/07/07 02:43:32;;;;;;;;;;;25.70;94.40;;;;;;5126986;28;19924;-51
2022/07/07 02:45:58;;;;;;;;;;;25.70;94.40;;;;;;5126316;28;19908;-59
2022/07/07 02:48:25;;;;;;;;;;;25.70;94.40;;;;;;5126384;28;19904;-51
2022/07/07 02:50:52;;;;;;;;;;;25.70;94.30;;;;;;5108293;28;19904;-56
2022/07/07 02:53:18;;;;;;;;;;;25.70;94.20;;;;;;5106246;28;19903;-58
2022/07/07 02:55:45;;;;;;;;;;;25.70;94.20;;;;;;5106904;28;19907;-54
2022/07/07 02:58:12;;;;;;;;;;;25.70;94.00;;;;;;5125825;28;19911;-55
2022/07/07 03:00:38;;;;;;;;;;;25.70;94.00;;;;;;5106954;28;20202;-51
2022/07/07 03:03:05;;;;;;;;;;;25.70;94.00;;;;;;5125462;28;19908;-53
2022/07/07 03:05:31;;;;;;;;;;;25.60;94.00;;;;;;5126307;28;19926;-52
2022/07/07 03:07:58;;;;;;;;;;;25.70;94.00;;;;;;5126108;28;19904;-53
2022/07/07 03:10:35;;;;;;;;;;;25.60;94.00;;;;;;5127228;28;19912;-53
2022/07/07 03:13:01;;;;;;;;;;;25.60;93.90;;;;;;5107405;28;19951;-52
2022/07/07 03:15:27;;;;;;;;;;;25.60;93.90;;;;;;5125786;28;19942;-54
2022/07/07 03:17:53;;;;;;;;;;;25.60;93.90;;;;;;5126025;28;19908;-52
2022/07/07 03:20:20;;;;;;;;;;;25.60;93.80;;;;;;5126326;28;20069;-58
2022/07/07 03:22:46;;;;;;;;;;;25.60;93.80;;;;;;5126062;28;19903;-55
2022/07/07 03:25:12;;;;;;;;;;;25.60;93.80;;;;;;5126038;28;19935;-56
2022/07/07 03:27:39;;;;;;;;;;;25.60;93.80;;;;;;5125566;28;20192;-51
2022/07/07 03:30:06;;;;;;;;;;;25.60;93.90;;;;;;5126452;28;19912;-55
2022/07/07 03:32:32;;;;;;;;;;;25.50;94.00;;;;;;5125445;28;19904;-55
2022/07/07 03:34:59;;;;;;;;;;;25.50;94.00;;;;;;5124915;28;19927;-54
2022/07/07 03:37:25;;;;;;;;;;;25.50;94.00;;;;;;5123039;28;19911;-53
2022/07/07 03:39:51;;;;;;;;;;;25.50;94.00;;;;;;5120177;28;19926;-55
2022/07/07 03:42:18;;;;;;;;;;;25.50;94.10;;;;;;5125708;28;19942;-56
2022/07/07 03:44:44;;;;;;;;;;;25.50;94.10;;;;;;5126477;28;19947;-52
2022/07/07 03:47:11;;;;;;;;;;;25.50;94.20;;;;;;5126266;28;19923;-54
2022/07/07 03:49:38;;;;;;;;;;;25.50;94.20;;;;;;5125047;28;19916;-54
2022/07/07 03:52:06;;;;;;;;;;;25.50;94.10;;;;;;5125536;28;19904;-56
2022/07/07 03:54:35;;;;;;;;;;;25.50;94.20;;;;;;5125619;28;20107;-56
2022/07/07 03:59:50;;;;;;;;;;;25.50;94.20;;;;;;5113674;28;20087;-54
2022/07/07 04:02:16;;;;;;;;;;;25.40;94.20;;;;;;5125539;28;20271;-52
2022/07/07 04:04:49;;;;;;;;;;;25.40;94.30;;;;;;5125331;28;19950;-53
2022/07/07 04:07:15;;;;;;;;;;;25.40;94.30;;;;;;5107377;28;19904;-55
2022/07/07 04:09:42;;;;;;;;;;;25.50;94.30;;;;;;5125611;28;20141;-53
2022/07/07 04:12:08;;;;;;;;;;;25.40;94.30;;;;;;5125454;28;19908;-53
2022/07/07 04:14:34;;;;;;;;;;;25.40;94.30;;;;;;5123766;28;19938;-58
2022/07/07 04:17:01;;;;;;;;;;;25.40;94.30;;;;;;5118434;28;20193;-56
2022/07/07 04:19:27;;;;;;;;;;;25.40;94.30;;;;;;5101731;28;19980;-57
2022/07/07 04:22:02;;;;;;;;;;;25.40;94.30;;;;;;5106829;28;19904;-57
2022/07/07 04:24:55;;;;;;;;;;;25.30;94.30;;;;;;5105280;28;19932;-60
2022/07/07 04:27:21;;;;;;;;;;;25.30;94.20;;;;;;5102057;28;19950;-54
2022/07/07 04:29:47;;;;;;;;;;;25.30;94.20;;;;;;5104780;28;19904;-55
2022/07/07 04:32:14;;;;;;;;;;;25.30;94.20;;;;;;5104220;28;20227;-52
2022/07/07 04:34:40;;;;;;;;;;;25.30;94.10;;;;;;5104213;28;19916;-55
2022/07/07 04:37:06;;;;;;;;;;;25.30;94.00;;;;;;5104149;28;19914;-54
2022/07/07 04:39:32;;;;;;;;;;;25.30;94.10;;;;;;5104905;28;20077;-58
2022/07/07 04:41:58;;;;;;;;;;;25.30;94.00;;;;;;5104325;28;19904;-54
2022/07/07 04:44:24;;;;;;;;;;;25.30;94.00;;;;;;5104580;28;19947;-52
2022/07/07 04:46:50;;;;;;;;;;;25.30;94.00;;;;;;5104195;28;19904;-52
2022/07/07 04:49:16;;;;;;;;;;;25.30;94.10;;;;;;5104628;28;20216;-53
2022/07/07 04:51:43;;;;;;;;;;;25.20;94.00;;;;;;5104112;28;20188;-52
2022/07/07 04:54:09;;;;;;;;;;;25.20;93.90;;;;;;5105757;28;19943;-51
2022/07/07 04:56:35;;;;;;;;;;;25.20;94.00;;;;;;5108039;28;19908;-55
2022/07/07 04:59:01;;;;;;;;;;;25.20;94.00;;;;;;5108356;28;19912;-51
2022/07/07 05:01:27;;;;;;;;;;;25.20;94.10;;;;;;5108027;28;19911;-53
2022/07/07 05:03:53;;;;;;;;;;;25.20;94.10;;;;;;5108526;28;19939;-52
2022/07/07 05:06:19;;;;;;;;;;;25.20;94.20;;;;;;5107953;28;19908;-52
2022/07/07 05:08:45;;;;;;;;;;;25.20;94.30;;;;;;5108188;28;19912;-60
2022/07/07 05:11:11;;;;;;;;;;;25.20;94.30;;;;;;5122712;28;19953;-52
2022/07/07 05:13:38;;;;;;;;;;;25.20;94.30;;;;;;5128442;28;19912;-52
2022/07/07 05:16:05;;;;;;;;;;;25.20;94.30;;;;;;5127960;28;19942;-52
2022/07/07 05:18:32;;;;;;;;;;;25.20;94.30;;;;;;5128554;28;20263;-53
2022/07/07 05:20:58;;;;;;;;;;;25.10;94.30;;;;;;5128199;28;19926;-56
2022/07/07 05:23:27;;;;;;;;;;;25.10;94.30;;;;;;5121755;28;20180;-53
2022/07/07 05:25:54;;;;;;;;;;;25.10;94.30;;;;;;5108216;28;19931;-53
2022/07/07 05:28:20;;;;;;;;;;;25.10;94.30;;;;;;5112907;28;19983;-52
2022/07/07 05:30:46;;;;;;;;;;;25.10;94.40;;;;;;5125508;28;19954;-54
2022/07/07 05:33:12;;;;;;;;;;;25.10;94.60;;;;;;5118418;28;19913;-56
2022/07/07 05:35:38;;;;;;;;;;;25.10;94.40;;;;;;5107182;28;20037;-56
2022/07/07 05:38:05;;;;;;;;;;;25.10;94.30;;;;;;5107174;28;19979;-54
2022/07/07 05:40:31;;;;;;;;;;;25.10;94.30;;;;;;5107400;28;19904;-53
2022/07/07 05:42:57;;;;;;;;;;;25.10;94.30;;;;;;5107386;28;19919;-53
2022/07/07 05:45:23;;;;;;;;;;;25.10;94.30;;;;;;5107294;28;19936;-54
2022/07/07 05:47:49;;;;;;;;;;;25.10;94.30;;;;;;5127383;28;20066;-55
2022/07/07 05:50:15;;;;;;;;;;;25.10;94.30;;;;;;5127677;28;19910;-52
2022/07/07 05:52:43;;;;;;;;;;;25.10;94.30;;;;;;5127463;28;19912;-57
2022/07/07 05:55:09;;;;;;;;;;;25.00;94.30;;;;;;5127512;28;19966;-52
2022/07/07 05:57:35;;;;;;;;;;;25.00;94.20;;;;;;5127388;28;19915;-55
2022/07/07 06:00:01;;;;;;;;;;;25.00;94.20;;;;;;5127348;28;19946;-54
2022/07/07 06:02:27;;;;;;;;;;;25.00;94.10;;;;;;5127359;28;19903;-51
2022/07/07 06:04:54;;;;;;;;;;;25.00;94.20;;;;;;5127417;28;19926;-51
2022/07/07 06:07:20;;;;;;;;;;;25.00;94.40;;;;;;5127230;28;19904;-55
2022/07/07 06:09:46;;;;;;;;;;;24.90;94.10;;;;;;5126991;28;19945;-51
2022/07/07 06:12:12;;;;;;;;;;;25.00;94.10;;;;;;5127253;28;20243;-51
2022/07/07 06:14:38;;;;;;;;;;;24.90;94.20;;;;;;5126935;28;19945;-52
2022/07/07 06:17:04;;;;;;;;;;;24.90;94.20;;;;;;5126782;28;19915;-52
2022/07/07 06:19:30;;;;;;;;;;;25.00;94.20;;;;;;5127491;28;19919;-52
2022/07/07 06:21:56;;;;;;;;;;;24.90;94.20;;;;;;5126925;28;19911;-53
2022/07/07 06:24:23;;;;;;;;;;;24.90;94.20;;;;;;5126619;28;19954;-52
2022/07/07 06:26:49;;;;;;;;;;;24.90;94.20;;;;;;5126781;28;19903;-54
2022/07/07 06:29:15;;;;;;;;;;;24.90;94.20;;;;;;5127174;28;19953;-52
2022/07/07 06:31:41;;;;;;;;;;;24.90;94.20;;;;;;5126633;28;20319;-53
2022/07/07 06:34:07;;;;;;;;;;;24.90;94.20;;;;;;5126959;28;19973;-52
2022/07/07 06:36:34;;;;;;;;;;;24.90;94.20;;;;;;5126492;28;19912;-55
2022/07/07 06:39:00;;;;;;;;;;;24.90;94.10;;;;;;5126902;28;19918;-53
2022/07/07 06:41:36;;;;;;;;;;;24.90;94.20;;;;;;5126605;28;19935;-52
2022/07/07 06:44:03;;;;;;;;;;;24.90;94.20;;;;;;5127376;28;19952;-48
2022/07/07 06:46:29;;;;;;;;;;;24.90;94.30;;;;;;5126430;28;20077;-52
2022/07/07 06:48:55;;;;;;;;;;;24.80;94.20;;;;;;5126753;28;19999;-52
2022/07/07 06:51:22;;;;;;;;;;;24.90;94.30;;;;;;5126169;28;19908;-58
2022/07/07 06:53:48;;;;;;;;;;;24.80;94.30;;;;;;5126570;28;20247;-54
2022/07/07 06:56:14;;;;;;;;;;;24.80;94.30;;;;;;5126136;28;19911;-52
2022/07/07 06:58:40;;;;;;;;;;;24.80;94.30;;;;;;5126691;28;20073;-53
2022/07/07 07:01:06;;;;;;;;;;;24.80;94.30;;;;;;5122169;28;20134;-53
2022/07/07 07:03:32;;;;;;;;;;;24.80;94.30;;;;;;5125866;28;19912;-53
2022/07/07 07:05:59;;;;;;;;;;;24.80;94.30;;;;;;5126151;28;19970;-52
2022/07/07 07:08:25;;;;;;;;;;;24.80;94.30;;;;;;5126405;28;19911;-54
2022/07/07 07:10:51;;;;;;;;;;;24.80;94.30;;;;;;5126340;28;20194;-57
2022/07/07 07:13:17;;;;;;;;;;;24.80;94.30;;;;;;5126349;28;19911;-52
2022/07/07 07:15:44;;;;;;;;;;;24.80;94.30;;;;;;5125891;28;19926;-53
2022/07/07 07:18:10;;;;;;;;;;;24.80;94.30;;;;;;5125515;28;19919;-58
2022/07/07 07:20:36;;;;;;;;;;;24.70;94.30;;;;;;5126013;28;19904;-56
2022/07/07 07:23:02;;;;;;;;;;;24.70;94.30;;;;;;5125970;28;19919;-59
2022/07/07 07:25:28;;;;;;;;;;;24.80;94.30;;;;;;5126104;28;19912;-54
2022/07/07 07:27:55;;;;;;;;;;;24.70;94.20;;;;;;5125785;28;19918;-54
2022/07/07 07:30:21;;;;;;;;;;;24.70;94.20;;;;;;5125843;28;20063;-53
2022/07/07 07:32:47;;;;;;;;;;;24.70;94.20;;;;;;5125794;28;19912;-53
2022/07/07 07:35:13;;;;;;;;;;;24.70;94.20;;;;;;5125695;28;19915;-53
2022/07/07 07:37:39;;;;;;;;;;;24.70;94.10;;;;;;5125755;28;19916;-54
2022/07/07 07:40:07;;;;;;;;;;;24.70;94.10;;;;;;5125520;28;19904;-49
2022/07/07 07:42:33;;;;;;;;;;;24.70;94.10;;;;;;5125450;28;19911;-52
2022/07/07 07:45:11;;;;;;;;;;;24.70;94.10;;;;;;5125437;28;19911;-53
2022/07/07 07:47:38;;;;;;;;;;;24.70;94.10;;;;;;5125212;28;19912;-52
2022/07/07 07:50:05;;;;;;;;;;;24.70;94.10;;;;;;5125799;28;19904;-51
2022/07/07 07:52:31;;;;;;;;;;;24.60;94.00;;;;;;5125534;28;20256;-54
2022/07/07 07:54:57;;;;;;;;;;;24.70;94.00;;;;;;5125264;28;19931;-53
2022/07/07 07:57:23;;;;;;;;;;;24.70;94.00;;;;;;5125295;28;19939;-52
2022/07/07 07:59:50;;;;;;;;;;;24.60;94.00;;;;;;5125271;28;19932;-52
2022/07/07 08:02:16;;;;;;;;;;;24.60;94.00;;;;;;5125236;28;19904;-56
2022/07/07 08:04:42;;;;;;;;;;;24.60;94.00;;;;;;5125445;28;20099;-52
2022/07/07 08:07:08;;;;;;;;;;;24.60;94.00;;;;;;5125457;28;19903;-55
2022/07/07 08:09:34;;;;;;;;;;;24.60;94.00;;;;;;5125218;28;19935;-54
2022/07/07 08:12:00;;;;;;;;;;;24.60;94.00;;;;;;5125748;28;19950;-54
2022/07/07 08:14:26;;;;;;;;;;;24.60;93.90;;;;;;5125742;28;19912;-52
2022/07/07 08:16:53;;;;;;;;;;;24.60;93.90;;;;;;5125262;28;19907;-49
2022/07/07 08:19:19;;;;;;;;;;;24.60;93.90;;;;;;5125564;28;20074;-51
2022/07/07 08:21:50;;;;;;;;;;;24.60;93.80;;;;;;5124976;28;20188;-52
2022/07/07 08:24:17;;;;;;;;;;;24.60;93.80;;;;;;5125978;28;19919;-51
2022/07/07 08:26:43;;;;;;;;;;;24.50;93.70;;;;;;5124999;28;19904;-54
2022/07/07 08:29:10;;;;;;;;;;;24.60;93.70;;;;;;5127681;28;19912;-54
2022/07/07 08:31:36;;;;;;;;;;;24.50;93.70;;;;;;5129228;28;19904;-53
2022/07/07 08:34:02;;;;;;;;;;;24.60;93.70;;;;;;5129915;28;19920;-52
2022/07/07 08:36:30;;;;;;;;;;;24.50;93.70;;;;;;5129451;28;19986;-54
2022/07/07 08:38:57;;;;;;;;;;;24.50;93.60;;;;;;5129587;28;19911;-54
2022/07/07 08:41:23;;;;;;;;;;;24.50;93.70;;;;;;5129474;28;19912;-58
2022/07/07 08:43:49;;;;;;;;;;;24.50;93.60;;;;;;5129983;28;19912;-52
2022/07/07 08:46:15;;;;;;;;;;;24.50;93.70;;;;;;5129161;28;19908;-54
2022/07/07 08:48:42;;;;;;;;;;;24.50;93.60;;;;;;5129173;28;19912;-52
2022/07/07 08:51:08;;;;;;;;;;;24.50;93.60;;;;;;5129029;28;19904;-53
2022/07/07 08:53:35;;;;;;;;;;;24.50;93.60;;;;;;5128702;28;19912;-53
2022/07/07 08:56:06;;;;;;;;;;;24.40;93.50;;;;;;5128832;28;19911;-53
2022/07/07 08:58:35;;;;;;;;;;;24.50;93.50;;;;;;5129237;28;19968;-52
2022/07/07 09:01:02;;;;;;;;;;;24.40;93.50;;;;;;5128390;28;19908;-53
2022/07/07 09:03:29;;;;;;;;;;;24.40;93.50;;;;;;5128792;28;20220;-48
2022/07/07 09:05:56;;;;;;;;;;;24.50;93.50;;;;;;5128551;28;19904;-52
2022/07/07 09:08:23;;;;;;;;;;;24.40;93.40;;;;;;5128674;28;19947;-55
2022/07/07 09:10:49;;;;;;;;;;;24.40;93.40;;;;;;5128362;28;20116;-53
2022/07/07 09:13:26;;;;;;;;;;;24.40;93.40;;;;;;5128558;28;19912;-53
2022/07/07 09:15:53;;;;;;;;;;;24.50;93.40;;;;;;5128172;28;19903;-53
2022/07/07 09:18:36;;;;;;;;;;;24.50;93.30;;;;;;5128329;28;19933;-53
2022/07/07 09:21:03;;;;;;;;;;;24.50;93.30;;;;;;5128541;28;19904;-51
2022/07/07 09:23:29;;;;;;;;;;;24.40;93.30;;;;;;5128686;28;20417;-54
2022/07/07 09:25:55;;;;;;;;;;;24.50;93.40;;;;;;5128561;28;19942;-52
2022/07/07 09:28:22;;;;;;;;;;;24.40;93.40;;;;;;5128484;28;19912;-52
2022/07/07 09:30:48;;;;;;;;;;;24.40;93.40;;;;;;5128223;28;20099;-52
2022/07/07 09:33:19;;;;;;;;;;;24.40;93.40;;;;;;5128421;28;20078;-53
2022/07/07 09:38:31;;;;;;;;;;;24.40;93.40;;;;;;5127849;28;20017;-58
2022/07/07 09:40:59;;;;;;;;;;;24.40;93.40;;;;;;5127523;28;19941;-55
2022/07/07 09:43:30;;;;;;;;;;;24.40;93.30;;;;;;5127920;28;20155;-52
2022/07/07 09:46:07;;;;;;;;;;;24.40;93.40;;;;;;5127759;28;19971;-52
2022/07/07 09:48:33;;;;;;;;;;;24.30;93.30;;;;;;5127958;28;19911;-52
2022/07/07 09:51:18;;;;;;;;;;;24.30;93.40;;;;;;5128003;28;20219;-58
2022/07/07 09:53:55;;;;;;;;;;;24.40;93.50;;;;;;5127815;28;19918;-52
2022/07/07 09:56:22;;;;;;;;;;;24.30;93.50;;;;;;5127913;28;19986;-55
2022/07/07 09:58:48;;;;;;;;;;;24.30;93.50;;;;;;5127861;28;19918;-57
2022/07/07 10:01:15;;;;;;;;;;;24.30;93.50;;;;;;5127913;28;19904;-55
2022/07/07 10:03:42;;;;;;;;;;;24.30;93.60;;;;;;5127753;28;19911;-54
2022/07/07 10:06:09;;;;;;;;;;;24.30;93.70;;;;;;5127510;28;19942;-53
2022/07/07 10:08:38;;;;;;;;;;;24.40;93.70;;;;;;5127590;28;19912;-57
2022/07/07 10:11:06;;;;;;;;;;;24.30;93.70;;;;;;5127656;28;19982;-54
2022/07/07 10:13:35;;;;;;;;;;;24.30;93.80;;;;;;5127468;28;19915;-57
2022/07/07 10:16:02;;;;;;;;;;;24.30;93.80;;;;;;5127266;28;19975;-55
2022/07/07 10:18:28;;;;;;;;;;;24.30;93.60;;;;;;5127389;28;20176;-56
2022/07/07 10:20:54;;;;;;;;;;;24.30;93.60;;;;;;5127212;28;19953;-56
2022/07/07 10:23:20;;;;;;;;;;;24.30;93.50;;;;;;5126980;28;19911;-55
2022/07/07 10:26:02;;;;;;;;;;;24.30;93.60;;;;;;5127144;28;19935;-57
2022/07/07 10:28:47;;;;;;;;;;;24.30;93.60;;;;;;5127508;28;19912;-55
2022/07/07 10:31:22;;;;;;;;;;;24.30;93.60;;;;;;5127274;28;19930;-57
2022/07/07 10:33:55;;;;;;;;;;;24.30;93.70;;;;;;5126947;28;19908;-52
2022/07/07 10:36:21;;;;;;;;;;;24.30;93.80;;;;;;5126491;28;19978;-55
2022/07/07 10:38:50;;;;;;;;;;;24.30;93.80;;;;;;5127019;28;19919;-58
2022/07/07 10:41:23;;;;;;;;;;;24.30;93.80;;;;;;5126947;28;20188;-53
2022/07/07 10:43:57;;;;;;;;;;;24.30;93.90;;;;;;5127384;28;19927;-55
2022/07/07 10:46:23;;;;;;;;;;;24.30;93.90;;;;;;5126403;28;19911;-54
2022/07/07 10:48:52;;;;;;;;;;;24.30;94.00;;;;;;5126940;28;19918;-52
2022/07/07 10:51:18;;;;;;;;;;;24.30;94.10;;;;;;5125711;28;19910;-55
2022/07/07 10:54:00;;;;;;;;;;;24.30;94.10;;;;;;5126240;28;19911;-54
2022/07/07 10:56:27;;;;;;;;;;;24.30;94.20;;;;;;5126754;28;20096;-58
2022/07/07 10:58:56;;;;;;;;;;;24.30;94.20;;;;;;5126661;28;19904;-55
2022/07/07 11:01:23;;;;;;;;;;;24.30;94.20;;;;;;5126700;28;20020;-55
2022/07/07 11:03:49;;;;;;;;;;;24.30;94.20;;;;;;5126157;28;19926;-57
2022/07/07 11:06:16;;;;;;;;;;;24.30;94.20;;;;;;5125884;28;19935;-56
2022/07/07 11:08:42;;;;;;;;;;;24.30;94.20;;;;;;5125931;28;19970;-53
2022/07/07 11:11:08;;;;;;;;;;;24.30;94.10;;;;;;5126454;28;19943;-55
2022/07/07 11:13:36;;;;;;;;;;;24.30;94.10;;;;;;5107776;28;20211;-56
2022/07/07 11:16:15;;;;;;;;;;;24.30;94.20;;;;;;5126294;28;19973;-56
2022/07/07 11:18:42;;;;;;;;;;;24.30;94.20;;;;;;5125813;28;19904;-54
2022/07/07 11:21:09;;;;;;;;;;;24.30;94.20;;;;;;5126288;28;19926;-50
2022/07/07 11:23:42;;;;;;;;;;;24.30;94.30;;;;;;5125713;28;19945;-50
2022/07/07 11:26:09;;;;;;;;;;;24.30;94.50;;;;;;5126202;28;20085;-54
2022/07/07 11:28:37;;;;;;;;;;;24.30;94.40;;;;;;5125843;28;19971;-55
2022/07/07 11:31:04;;;;;;;;;;;24.30;94.40;;;;;;5126100;28;19962;-54
2022/07/07 11:33:31;;;;;;;;;;;24.30;94.50;;;;;;5125695;28;19910;-53
2022/07/07 11:35:57;;;;;;;;;;;24.30;94.50;;;;;;5125872;28;19927;-54
2022/07/07 11:38:28;;;;;;;;;;;24.40;94.60;;;;;;5125707;28;19904;-55
2022/07/07 11:40:57;;;;;;;;;;;24.40;94.50;;;;;;5125374;28;20228;-54
2022/07/07 11:43:24;;;;;;;;;;;24.40;94.50;;;;;;5125137;28;19919;-55
2022/07/07 11:45:51;;;;;;;;;;;24.40;94.60;;;;;;5125688;28;19919;-56
2022/07/07 11:48:17;;;;;;;;;;;24.40;94.60;;;;;;5125346;28;19932;-59
2022/07/07 11:50:45;;;;;;;;;;;24.40;94.60;;;;;;5125351;28;19911;-53
2022/07/07 11:53:11;;;;;;;;;;;24.40;94.60;;;;;;5125309;28;19938;-53
2022/07/07 11:55:37;;;;;;;;;;;24.40;94.60;;;;;;5125693;28;19919;-54
2022/07/07 11:58:05;;;;;;;;;;;24.40;94.60;;;;;;5125271;28;20103;-52
2022/07/07 12:00:31;;;;;;;;;;;24.50;94.50;;;;;;5125256;28;19953;-54
2022/07/07 12:06:27;;;;;;;;;;;24.50;94.40;;;;;;5125506;28;19930;-59
2022/07/07 12:08:55;;;;;;;;;;;24.50;94.40;;;;;;5126118;28;19912;-57
2022/07/07 12:11:21;;;;;;;;;;;24.50;94.40;;;;;;5125230;28;19911;-53
2022/07/07 12:13:47;;;;;;;;;;;24.50;94.40;;;;;;5125394;28;19927;-55
2022/07/07 12:16:13;;;;;;;;;;;24.50;94.50;;;;;;5125086;28;19912;-53
2022/07/07 12:18:41;;;;;;;;;;;24.50;94.60;;;;;;5125342;28;19975;-54
2022/07/07 12:21:08;;;;;;;;;;;24.60;94.60;;;;;;5124936;28;19912;-53
2022/07/07 12:23:36;;;;;;;;;;;24.60;94.50;;;;;;5125386;28;19934;-52
2022/07/07 12:26:06;;;;;;;;;;;24.60;94.40;;;;;;5124127;28;19904;-56
2022/07/07 12:28:38;;;;;;;;;;;24.60;94.40;;;;;;5125351;28;19915;-55
2022/07/07 12:31:04;;;;;;;;;;;24.60;94.40;;;;;;5124423;28;20152;-51
2022/07/07 12:33:38;;;;;;;;;;;24.60;94.30;;;;;;5125585;28;19911;-52
2022/07/07 12:36:33;;;;;;;;;;;24.60;94.30;;;;;;5124491;28;19979;-54
2022/07/07 12:39:00;;;;;;;;;;;24.60;94.30;;;;;;5103221;28;19912;-52
2022/07/07 12:41:27;;;;;;;;;;;24.60;94.30;;;;;;5124870;28;19908;-53
2022/07/07 12:43:54;;;;;;;;;;;24.60;94.30;;;;;;5124932;28;20098;-53
2022/07/07 12:46:21;;;;;;;;;;;24.70;94.20;;;;;;5124385;28;20426;-53
2022/07/07 12:48:48;;;;;;;;;;;24.70;94.20;;;;;;5124851;28;19911;-54
2022/07/07 12:51:15;;;;;;;;;;;24.70;94.10;;;;;;5124728;28;19945;-54
2022/07/07 12:53:43;;;;;;;;;;;24.70;94.10;;;;;;5124644;28;19903;-53
2022/07/07 12:56:10;;;;;;;;;;;24.70;94.00;;;;;;5125035;28;19903;-55
2022/07/07 12:58:54;;;;;;;;;;;24.70;94.00;;;;;;5125073;28;19912;-54
2022/07/07 13:01:21;;;;;;;;;;;24.80;94.00;;;;;;5124979;28;19943;-54
2022/07/07 13:03:49;;;;;;;;;;;24.80;94.00;;;;;;5124499;28;19904;-56
2022/07/07 13:06:15;;;;;;;;;;;24.80;94.00;;;;;;5124749;28;19911;-54
2022/07/07 13:08:42;;;;;;;;;;;24.80;94.00;;;;;;5123661;28;20239;-53
2022/07/07 13:11:08;;;;;;;;;;;24.80;94.00;;;;;;5124536;28;19904;-57
2022/07/07 13:13:35;;;;;;;;;;;24.80;93.90;;;;;;5125372;28;19912;-56
2022/07/07 13:16:01;;;;;;;;;;;24.80;93.90;;;;;;5125809;28;20020;-53
2022/07/07 13:18:27;;;;;;;;;;;24.80;93.90;;;;;;5128592;28;19916;-55
2022/07/07 13:20:54;;;;;;;;;;;24.80;93.90;;;;;;5127204;28;19908;-55
2022/07/07 13:23:29;;;;;;;;;;;24.80;93.90;;;;;;5127362;28;19983;-55
2022/07/07 13:26:02;;;;;;;;;;;24.80;94.00;;;;;;5126388;28;19908;-55
2022/07/07 13:28:29;;;;;;;;;;;24.90;94.00;;;;;;5128776;28;19937;-53
2022/07/07 13:30:55;;;;;;;;;;;24.90;94.00;;;;;;5127530;28;19908;-54
2022/07/07 13:33:24;;;;;;;;;;;24.90;94.10;;;;;;5127076;28;20190;-53
2022/07/07 13:35:51;;;;;;;;;;;24.90;94.10;;;;;;5127902;28;19961;-56
2022/07/07 13:38:18;;;;;;;;;;;24.90;94.10;;;;;;5127937;28;19920;-56
2022/07/07 13:40:44;;;;;;;;;;;24.90;94.10;;;;;;5126877;28;19903;-54
2022/07/07 13:43:10;;;;;;;;;;;24.90;94.10;;;;;;5127267;28;19912;-53
2022/07/07 13:45:37;;;;;;;;;;;24.90;94.10;;;;;;5101178;28;19914;-51
2022/07/07 13:48:03;;;;;;;;;;;25.00;94.10;;;;;;5107657;28;19912;-53
2022/07/07 13:50:30;;;;;;;;;;;25.00;94.10;;;;;;5107550;28;19911;-51
2022/07/07 13:52:56;;;;;;;;;;;25.00;94.20;;;;;;5107558;28;19932;-53
2022/07/07 13:55:22;;;;;;;;;;;25.00;94.10;;;;;;5116631;28;19904;-51
2022/07/07 13:57:49;;;;;;;;;;;25.00;94.10;;;;;;5120888;28;19915;-54
2022/07/07 14:00:15;;;;;;;;;;;25.00;94.10;;;;;;5127172;28;19908;-53
2022/07/07 14:02:42;;;;;;;;;;;25.00;94.30;;;;;;5127851;28;19939;-54
2022/07/07 14:05:08;;;;;;;;;;;25.00;94.20;;;;;;5127103;28;19911;-51
2022/07/07 14:07:34;;;;;;;;;;;25.00;94.20;;;;;;5123994;28;19912;-57
2022/07/07 14:10:01;;;;;;;;;;;25.00;94.20;;;;;;5116392;28;19911;-57
2022/07/07 14:12:27;;;;;;;;;;;25.00;94.20;;;;;;5106877;28;19983;-53
2022/07/07 14:14:54;;;;;;;;;;;25.00;94.20;;;;;;5112664;28;19916;-54
2022/07/07 14:17:20;;;;;;;;;;;25.10;94.50;;;;;;5122092;28;20211;-54
2022/07/07 14:19:47;;;;;;;;;;;25.10;94.30;;;;;;5121655;28;19979;-58
2022/07/07 14:22:13;;;;;;;;;;;25.10;94.30;;;;;;5115398;28;19912;-49
2022/07/07 14:24:40;;;;;;;;;;;25.10;94.30;;;;;;5106438;28;19979;-55
2022/07/07 14:27:06;;;;;;;;;;;25.10;94.30;;;;;;5105729;28;19987;-54
2022/07/07 14:29:33;;;;;;;;;;;25.10;94.30;;;;;;5126761;28;19908;-53